createdAt,value
2019-06-01T00:01:25.124Z,99.90
2019-06-01T00:03:54.504Z,99.90
2019-06-01T00:06:23.809Z,99.90
2019-06-01T00:08:53.125Z,99.90
2019-06-01T00:11:23.419Z,99.90
2019-06-01T00:13:52.729Z,99.90
2019-06-01T00:16:22.047Z,99.90
2019-06-01T00:18:51.431Z,99.90
2019-06-01T00:21:20.808Z,99.90
2019-06-01T00:23:50.129Z,99.90
2019-06-01T00:26:19.441Z,99.90
2019-06-01T00:28:49.964Z,99.90
2019-06-01T00:31:19.420Z,99.90
2019-06-01T00:33:49.571Z,99.90
2019-06-01T00:36:19.009Z,99.90
2019-06-01T00:38:48.321Z,99.90
2019-06-01T00:41:17.915Z,99.90
2019-06-01T00:43:48.705Z,99.90
2019-06-01T00:46:18.232Z,99.90
2019-06-01T00:48:47.941Z,99.90
2019-06-01T00:51:18.283Z,99.90
2019-06-01T00:53:47.704Z,99.90
2019-06-01T00:56:17.025Z,99.90
2019-06-01T00:58:47.760Z,99.90
2019-06-01T01:01:17.166Z,99.90
2019-06-01T01:03:48.188Z,99.90
2019-06-01T01:06:17.750Z,99.90
2019-06-01T01:08:47.188Z,99.90
2019-06-01T01:11:16.602Z,99.90
2019-06-01T01:13:47.114Z,99.90
2019-06-01T01:16:16.495Z,99.90
2019-06-01T01:18:45.823Z,99.90
2019-06-01T01:21:15.131Z,99.90
2019-06-01T01:23:44.464Z,99.90
2019-06-01T01:26:13.774Z,99.90
2019-06-01T01:28:43.087Z,99.90
2019-06-01T01:31:14.176Z,99.90
2019-06-01T01:33:43.454Z,99.90
2019-06-01T01:36:12.762Z,99.90
2019-06-01T01:38:42.084Z,99.90
2019-06-01T01:41:11.580Z,99.90
2019-06-01T01:43:40.912Z,99.90
2019-06-01T01:46:10.209Z,99.90
2019-06-01T01:48:39.536Z,99.90
2019-06-01T01:51:08.852Z,99.90
2019-06-01T01:53:38.190Z,99.90
2019-06-01T01:56:07.506Z,99.90
2019-06-01T01:58:36.888Z,99.90
2019-06-01T02:01:21.325Z,99.90
2019-06-01T02:03:37.252Z,99.90
2019-06-01T02:06:06.571Z,99.90
2019-06-01T02:08:35.899Z,99.90
2019-06-01T02:11:05.207Z,99.90
2019-06-01T02:13:34.529Z,99.90
2019-06-01T02:16:04.067Z,99.90
2019-06-01T02:18:33.417Z,99.90
2019-06-01T02:21:02.803Z,99.90
2019-06-01T02:23:32.127Z,99.90
2019-06-01T02:26:01.454Z,99.90
2019-06-01T02:28:30.775Z,99.90
2019-06-01T02:31:00.184Z,99.90
2019-06-01T02:33:29.897Z,99.90
2019-06-01T02:36:00.628Z,99.90
2019-06-01T02:38:30.228Z,99.90
2019-06-01T02:41:01.055Z,99.90
2019-06-01T02:43:30.645Z,99.90
2019-06-01T02:46:02.523Z,99.90
2019-06-01T02:48:32.224Z,99.90
2019-06-01T02:51:01.923Z,99.90
2019-06-01T02:53:31.562Z,99.90
2019-06-01T02:56:06.332Z,99.90
2019-06-01T02:58:35.689Z,99.90
2019-06-01T03:01:20.316Z,99.90
2019-06-01T03:03:50.576Z,99.90
2019-06-01T03:06:21.114Z,99.90
2019-06-01T03:08:52.549Z,99.90
2019-06-01T03:11:25.216Z,99.90
2019-06-01T03:13:58.215Z,99.90
2019-06-01T03:16:29.434Z,99.90
2019-06-01T03:19:01.843Z,99.90
2019-06-01T03:21:32.960Z,99.90
2019-06-01T03:24:08.160Z,99.90
2019-06-01T03:26:46.016Z,99.90
2019-06-01T03:29:19.764Z,99.90
2019-06-01T03:31:49.145Z,99.90
2019-06-01T03:34:18.947Z,99.90
2019-06-01T03:36:48.409Z,99.90
2019-06-01T03:39:17.900Z,99.90
2019-06-01T03:41:47.455Z,99.90
2019-06-01T03:44:16.782Z,99.90
2019-06-01T03:47:04.057Z,99.90
2019-06-01T03:49:33.395Z,99.90
2019-06-01T03:52:02.758Z,99.90
2019-06-01T03:54:32.090Z,99.90
2019-06-01T03:57:01.513Z,99.90
2019-06-01T03:59:30.929Z,99.90
2019-06-01T04:02:00.872Z,99.90
2019-06-01T04:04:30.242Z,99.90
2019-06-01T04:06:59.563Z,99.90
2019-06-01T04:09:28.881Z,99.90
2019-06-01T04:11:58.272Z,99.90
2019-06-01T04:14:27.597Z,99.90
2019-06-01T04:16:56.911Z,99.90
2019-06-01T04:19:26.270Z,99.90
2019-06-01T04:21:55.630Z,99.90
2019-06-01T04:24:24.945Z,99.90
2019-06-01T04:27:04.391Z,99.90
2019-06-01T04:29:33.711Z,99.90
2019-06-01T04:32:04.412Z,99.90
2019-06-01T04:34:35.731Z,99.90
2019-06-01T04:37:14.919Z,99.90
2019-06-01T04:39:44.229Z,99.90
2019-06-01T04:42:13.908Z,99.90
2019-06-01T04:44:43.411Z,99.90
2019-06-01T04:47:14.558Z,99.90
2019-06-01T04:49:44.092Z,99.90
2019-06-01T04:52:15.360Z,99.90
2019-06-01T04:54:44.668Z,99.90
2019-06-01T04:57:15.100Z,99.90
2019-06-01T04:59:44.620Z,99.90
2019-06-01T05:02:15.144Z,99.90
2019-06-01T05:04:44.666Z,99.90
2019-06-01T05:07:15.395Z,99.90
2019-06-01T05:09:44.888Z,99.90
2019-06-01T05:12:15.458Z,99.90
2019-06-01T05:14:44.894Z,99.90
2019-06-01T05:17:15.105Z,99.90
2019-06-01T05:19:45.235Z,99.90
2019-06-01T05:22:14.649Z,99.90
2019-06-01T05:24:44.047Z,99.90
2019-06-01T05:27:13.397Z,99.90
2019-06-01T05:29:42.741Z,99.90
2019-06-01T05:32:19.829Z,99.90
2019-06-01T05:34:49.135Z,99.90
2019-06-01T05:37:18.726Z,99.90
2019-06-01T05:39:48.064Z,99.90
2019-06-01T05:42:19.027Z,99.90
2019-06-01T05:44:48.552Z,99.90
2019-06-01T05:47:18.844Z,99.90
2019-06-01T05:49:48.164Z,99.90
2019-06-01T05:52:18.699Z,99.90
2019-06-01T05:54:48.193Z,99.90
2019-06-01T05:57:17.522Z,99.90
2019-06-01T05:59:48.504Z,99.90
2019-06-01T06:02:17.828Z,99.90
2019-06-01T06:04:47.149Z,99.90
2019-06-01T06:07:16.875Z,99.90
2019-06-01T06:09:46.366Z,99.90
2019-06-01T06:12:15.689Z,99.90
2019-06-01T06:14:45.079Z,99.90
2019-06-01T06:17:16.214Z,99.90
2019-06-01T06:19:45.407Z,99.90
2019-06-01T06:22:16.175Z,99.30
2019-06-01T06:24:45.674Z,98.40
2019-06-01T06:27:16.449Z,97.90
2019-06-01T06:29:45.914Z,96.80
2019-06-01T06:32:15.245Z,97.20
2019-06-01T06:34:44.571Z,96.30
2019-06-01T06:37:13.942Z,97.20
2019-06-01T06:39:43.260Z,98.10
2019-06-01T06:42:12.591Z,98.00
2019-06-01T06:44:41.898Z,98.90
2019-06-01T06:47:11.229Z,97.30
2019-06-01T06:49:40.532Z,96.50
2019-06-01T06:52:09.863Z,96.50
2019-06-01T06:54:39.172Z,97.00
2019-06-01T06:57:08.514Z,98.40
2019-06-01T06:59:37.837Z,98.90
2019-06-01T07:02:07.433Z,98.60
2019-06-01T07:04:36.828Z,98.60
2019-06-01T07:07:07.041Z,98.10
2019-06-01T07:09:36.363Z,97.90
2019-06-01T07:12:05.771Z,98.20
2019-06-01T07:14:35.095Z,97.80
2019-06-01T07:17:04.421Z,97.70
2019-06-01T07:19:33.740Z,97.50
2019-06-01T07:22:03.051Z,97.50
2019-06-01T07:24:32.854Z,98.30
2019-06-01T07:27:02.181Z,98.10
2019-06-01T07:29:32.468Z,98.40
2019-06-01T07:32:03.919Z,97.90
2019-06-01T07:34:41.206Z,98.10
2019-06-01T07:37:04.253Z,97.60
2019-06-01T07:39:33.620Z,97.40
2019-06-01T07:42:03.146Z,96.70
2019-06-01T07:44:33.264Z,97.30
2019-06-01T07:47:02.677Z,96.10
2019-06-01T07:49:31.997Z,97.40
2019-06-01T07:52:12.089Z,96.00
2019-06-01T07:54:32.701Z,96.00
2019-06-01T07:57:07.052Z,96.00
2019-06-01T07:59:37.309Z,96.60
2019-06-01T08:02:06.659Z,95.50
2019-06-01T08:04:52.512Z,95.90
2019-06-01T08:07:07.310Z,95.90
2019-06-01T08:09:36.619Z,95.50
2019-06-01T08:12:05.949Z,95.50
2019-06-01T08:14:35.328Z,95.20
2019-06-01T08:17:05.011Z,95.80
2019-06-01T08:19:34.334Z,96.20
2019-06-01T08:22:03.650Z,95.50
2019-06-01T08:24:32.958Z,95.30
2019-06-01T08:27:02.271Z,94.80
2019-06-01T08:29:32.890Z,96.40
2019-06-01T08:32:02.353Z,95.70
2019-06-01T08:34:33.034Z,96.30
2019-06-01T08:37:02.420Z,94.90
2019-06-01T08:39:31.731Z,94.50
2019-06-01T08:42:01.715Z,94.80
2019-06-01T08:44:31.696Z,93.10
2019-06-01T08:47:01.099Z,93.10
2019-06-01T08:49:31.067Z,93.20
2019-06-01T08:52:01.440Z,93.70
2019-06-01T08:54:30.760Z,94.30
2019-06-01T08:57:00.081Z,94.10
2019-06-01T08:59:30.374Z,94.00
2019-06-01T09:02:00.772Z,94.30
2019-06-01T09:04:30.773Z,94.10
2019-06-01T09:07:00.069Z,93.50
2019-06-01T09:09:29.441Z,92.80
2019-06-01T09:11:58.746Z,92.60
2019-06-01T09:14:29.109Z,93.40
2019-06-01T09:17:01.524Z,92.90
2019-06-01T09:29:32.219Z,93.90
2019-06-01T09:32:04.987Z,93.50
2019-06-01T09:41:19.467Z,92.90
2019-06-01T09:43:50.189Z,93.00
2019-06-01T09:46:19.660Z,91.80
2019-06-01T09:52:45.710Z,92.80
2019-06-01T09:58:41.763Z,93.20
2019-06-01T10:15:01.994Z,92.30
2019-06-01T10:17:35.148Z,91.00
2019-06-01T10:23:34.487Z,90.80
2019-06-01T10:26:59.827Z,91.20
2019-06-01T10:36:59.955Z,88.20
2019-06-01T10:50:01.174Z,85.50
2019-06-01T10:58:59.420Z,83.10
2019-06-01T11:01:40.918Z,84.40
2019-06-01T11:08:06.725Z,83.40
2019-06-01T11:20:50.543Z,83.30
2019-06-01T11:27:27.234Z,86.80
2019-06-01T11:33:58.550Z,83.00
2019-06-01T11:36:29.674Z,84.30
2019-06-01T11:42:36.918Z,84.10
2019-06-01T11:48:24.890Z,83.40
2019-06-01T11:50:54.197Z,79.30
2019-06-01T11:53:23.514Z,79.50
2019-06-01T11:55:52.897Z,79.70
2019-06-01T11:58:22.277Z,77.50
2019-06-01T12:00:52.555Z,77.40
2019-06-01T12:03:22.830Z,78.50
2019-06-01T12:05:52.141Z,77.50
2019-06-01T12:08:21.444Z,78.60
2019-06-01T12:10:50.763Z,77.10
2019-06-01T12:13:21.140Z,77.30
2019-06-01T12:19:44.750Z,77.50
2019-06-01T12:29:41.518Z,74.20
2019-06-01T12:39:11.707Z,75.10
2019-06-01T12:42:32.614Z,72.00
2019-06-01T12:44:54.124Z,71.10
2019-06-01T12:47:23.439Z,72.80
2019-06-01T12:50:00.456Z,68.30
2019-06-01T12:52:49.843Z,71.20
2019-06-01T13:04:44.739Z,71.10
2019-06-01T13:07:14.235Z,70.10
2019-06-01T13:09:44.096Z,69.40
2019-06-01T13:12:13.462Z,68.50
2019-06-01T13:14:43.221Z,68.60
2019-06-01T13:17:13.463Z,69.30
2019-06-01T13:19:43.299Z,65.40
2019-06-01T13:22:12.669Z,67.90
2019-06-01T13:24:41.980Z,68.30
2019-06-01T13:27:11.288Z,67.50
2019-06-01T13:29:41.653Z,67.30
2019-06-01T13:32:11.113Z,67.20
2019-06-01T13:34:40.463Z,69.70
2019-06-01T13:37:09.786Z,66.60
2019-06-01T13:39:39.086Z,66.20
2019-06-01T13:42:09.479Z,65.20
2019-06-01T13:44:38.783Z,66.90
2019-06-01T13:47:09.057Z,67.90
2019-06-01T13:49:38.358Z,64.40
2019-06-01T13:52:08.635Z,64.10
2019-06-01T13:54:40.146Z,61.80
2019-06-01T13:57:08.971Z,62.70
2019-06-01T13:59:38.322Z,64.40
2019-06-01T14:02:09.625Z,63.30
2019-06-01T14:04:38.929Z,62.70
2019-06-01T14:07:08.328Z,62.50
2019-06-01T14:09:37.623Z,61.30
2019-06-01T14:12:06.935Z,61.10
2019-06-01T14:14:36.253Z,60.80
2019-06-01T14:17:05.567Z,59.90
2019-06-01T14:19:34.875Z,58.20
2019-06-01T14:22:04.387Z,58.70
2019-06-01T14:24:33.750Z,60.90
2019-06-01T14:27:03.064Z,62.20
2019-06-01T14:29:32.372Z,60.90
2019-06-01T14:32:01.673Z,63.10
2019-06-01T14:34:31.021Z,60.20
2019-06-01T14:37:00.376Z,60.50
2019-06-01T14:39:29.696Z,60.30
2019-06-01T14:41:59.003Z,59.80
2019-06-01T14:44:28.332Z,62.90
2019-06-01T14:47:04.040Z,61.30
2019-06-01T14:49:28.657Z,59.00
2019-06-01T14:51:57.976Z,58.50
2019-06-01T14:54:27.305Z,59.20
2019-06-01T14:56:56.606Z,59.10
2019-06-01T14:59:27.549Z,58.20
2019-06-01T15:01:56.852Z,58.80
2019-06-01T15:04:26.181Z,59.80
2019-06-01T15:06:59.907Z,59.10
2019-06-01T15:09:29.223Z,60.10
2019-06-01T15:12:00.022Z,61.60
2019-06-01T15:14:29.416Z,60.30
2019-06-01T15:16:58.736Z,60.00
2019-06-01T15:19:28.071Z,61.60
2019-06-01T15:21:58.416Z,61.50
2019-06-01T15:24:27.736Z,59.00
2019-06-01T15:26:58.993Z,58.40
2019-06-01T15:29:28.375Z,59.40
2019-06-01T15:31:58.047Z,59.60
2019-06-01T15:34:27.375Z,59.80
2019-06-01T15:36:57.767Z,60.00
2019-06-01T15:39:28.840Z,60.10
2019-06-01T15:41:59.152Z,60.10
2019-06-01T15:44:28.539Z,60.80
2019-06-01T15:46:57.867Z,60.20
2019-06-01T15:49:27.179Z,60.50
2019-06-01T15:51:57.588Z,59.80
2019-06-01T15:54:27.655Z,57.60
2019-06-01T15:56:58.518Z,59.60
2019-06-01T15:59:27.959Z,59.30
2019-06-01T16:01:57.420Z,59.40
2019-06-01T16:04:26.783Z,59.90
2019-06-01T16:06:57.153Z,62.50
2019-06-01T16:09:41.506Z,63.60
2019-06-01T16:11:57.680Z,63.30
2019-06-01T16:14:27.016Z,61.20
2019-06-01T16:16:57.880Z,58.90
2019-06-01T16:19:27.488Z,59.70
2019-06-01T16:21:57.998Z,57.40
2019-06-01T16:24:27.385Z,58.20
2019-06-01T16:26:56.713Z,59.00
2019-06-01T16:29:26.081Z,58.40
2019-06-01T16:31:56.564Z,56.30
2019-06-01T16:34:26.968Z,55.10
2019-06-01T16:36:56.779Z,55.10
2019-06-01T16:39:26.288Z,54.50
2019-06-01T16:41:55.658Z,56.50
2019-06-01T16:44:25.010Z,57.50
2019-06-01T16:46:55.493Z,56.70
2019-06-01T16:49:27.197Z,55.50
2019-06-01T16:52:01.242Z,56.80
2019-06-01T16:54:30.758Z,55.90
2019-06-01T16:57:00.061Z,55.70
2019-06-01T16:59:29.379Z,54.50
2019-06-01T17:01:59.042Z,52.60
2019-06-01T17:04:28.439Z,54.20
2019-06-01T17:06:58.669Z,54.30
2019-06-01T17:09:28.068Z,54.30
2019-06-01T17:11:58.661Z,54.10
2019-06-01T17:14:29.407Z,54.40
2019-06-01T17:17:00.972Z,54.10
2019-06-01T17:19:30.377Z,53.10
2019-06-01T17:21:59.680Z,52.40
2019-06-01T17:24:30.072Z,53.30
2019-06-01T17:26:59.737Z,53.20
2019-06-01T17:29:29.184Z,51.40
2019-06-01T17:32:15.917Z,52.40
2019-06-01T17:34:29.522Z,52.30
2019-06-01T17:36:58.852Z,52.40
2019-06-01T17:39:28.230Z,52.50
2019-06-01T17:41:57.535Z,51.30
2019-06-01T17:44:26.859Z,53.20
2019-06-01T17:46:56.179Z,53.00
2019-06-01T17:49:25.480Z,53.10
2019-06-01T17:51:55.771Z,52.90
2019-06-01T17:54:25.080Z,53.10
2019-06-01T17:56:54.401Z,52.50
2019-06-01T17:59:23.699Z,53.80
2019-06-01T18:01:53.029Z,54.70
2019-06-01T18:04:22.327Z,56.10
2019-06-01T18:06:51.643Z,56.70
2019-06-01T18:09:21.083Z,58.40
2019-06-01T18:11:53.348Z,58.80
2019-06-01T18:14:22.930Z,58.30
2019-06-01T18:16:52.780Z,60.70
2019-06-01T18:19:22.344Z,62.90
2019-06-01T18:21:51.925Z,62.90
2019-06-01T18:24:21.216Z,65.80
2019-06-01T18:26:50.541Z,72.70
2019-06-01T18:29:19.847Z,72.40
2019-06-01T18:31:49.185Z,75.20
2019-06-01T18:34:18.494Z,78.30
2019-06-01T18:36:47.812Z,80.40
2019-06-01T18:39:17.188Z,81.60
2019-06-01T18:41:46.500Z,82.90
2019-06-01T18:44:15.803Z,86.60
2019-06-01T18:46:45.117Z,89.60
2019-06-01T18:49:17.904Z,90.60
2019-06-01T18:51:45.423Z,92.00
2019-06-01T18:54:15.154Z,93.00
2019-06-01T18:56:47.405Z,93.60
2019-06-01T18:59:16.827Z,94.00
2019-06-01T19:01:46.280Z,94.90
2019-06-01T19:04:16.019Z,95.90
2019-06-01T19:06:47.159Z,96.10
2019-06-01T19:09:16.555Z,96.30
2019-06-01T19:11:47.150Z,97.10
2019-06-01T19:14:18.029Z,97.70
2019-06-01T19:16:47.702Z,98.00
2019-06-01T19:19:17.075Z,98.50
2019-06-01T19:21:46.479Z,99.00
2019-06-01T19:24:16.748Z,99.30
2019-06-01T19:26:47.774Z,99.70
2019-06-01T19:29:17.161Z,99.90
2019-06-01T19:31:48.140Z,99.90
2019-06-01T19:34:18.219Z,99.90
2019-06-01T19:36:50.120Z,99.90
2019-06-01T19:39:20.059Z,99.90
2019-06-01T19:41:49.560Z,99.90
2019-06-01T19:44:18.865Z,99.90
2019-06-01T19:46:48.251Z,99.90
2019-06-01T19:49:19.030Z,99.90
2019-06-01T19:51:48.947Z,99.90
2019-06-01T19:55:06.439Z,99.90
2019-06-01T19:57:36.785Z,99.90
2019-06-01T20:00:16.333Z,99.90
2019-06-01T20:02:52.270Z,99.90
2019-06-01T20:05:22.877Z,99.90
2019-06-01T20:07:52.365Z,99.90
2019-06-01T20:10:22.633Z,99.90
2019-06-01T20:12:52.149Z,99.90
2019-06-01T20:15:21.570Z,99.90
2019-06-01T20:17:51.037Z,99.90
2019-06-01T20:20:23.057Z,99.90
2019-06-01T20:22:52.618Z,99.90
2019-06-01T20:25:21.927Z,99.90
2019-06-01T20:27:52.213Z,99.90
2019-06-01T20:30:22.238Z,99.90
2019-06-01T20:32:53.903Z,99.90
2019-06-01T20:35:23.230Z,99.90
2019-06-01T20:37:53.780Z,99.90
2019-06-01T20:40:24.427Z,99.90
2019-06-01T20:42:53.926Z,99.90
2019-06-01T20:45:23.492Z,99.90
2019-06-01T20:47:52.912Z,99.90
2019-06-01T20:50:22.879Z,99.90
2019-06-01T20:52:52.330Z,99.90
2019-06-01T20:55:21.666Z,99.90
2019-06-01T20:57:50.991Z,99.90
2019-06-01T21:00:21.737Z,99.90
2019-06-01T21:02:51.164Z,99.90
2019-06-01T21:05:20.488Z,99.90
2019-06-01T21:07:49.817Z,99.90
2019-06-01T21:10:20.486Z,99.90
2019-06-01T21:12:49.875Z,99.90
2019-06-01T21:15:19.367Z,99.90
2019-06-01T21:17:50.105Z,99.90
2019-06-01T21:20:28.275Z,99.90
2019-06-01T21:22:55.458Z,99.90
2019-06-01T21:25:25.400Z,99.90
2019-06-01T21:27:55.053Z,99.90
2019-06-01T21:30:25.808Z,99.90
2019-06-01T21:32:55.250Z,99.90
2019-06-01T21:35:26.992Z,99.90
2019-06-01T21:37:55.567Z,99.90
2019-06-01T21:40:25.757Z,99.90
2019-06-01T21:43:03.298Z,99.90
2019-06-01T21:45:26.388Z,99.90
2019-06-01T21:47:55.950Z,99.90
2019-06-01T21:50:25.978Z,99.90
2019-06-01T21:52:55.350Z,99.90
2019-06-01T21:55:26.332Z,99.90
2019-06-01T21:57:55.694Z,99.90
2019-06-01T22:00:29.752Z,99.90
2019-06-01T22:03:00.699Z,99.90
2019-06-01T22:05:30.048Z,99.90
2019-06-01T22:07:59.372Z,99.90
2019-06-01T22:10:28.765Z,99.90
2019-06-01T22:12:58.084Z,99.90
2019-06-01T22:15:28.051Z,99.90
2019-06-01T22:17:57.384Z,99.90
2019-06-01T22:20:28.104Z,99.90
2019-06-01T22:22:57.606Z,99.90
2019-06-01T22:25:28.051Z,99.90
2019-06-01T22:27:57.408Z,99.90
2019-06-01T22:30:26.737Z,99.90
2019-06-01T22:32:56.120Z,99.90
2019-06-01T22:35:26.464Z,99.90
2019-06-01T22:37:56.135Z,99.90
2019-06-01T22:40:25.447Z,99.90
2019-06-01T22:42:54.792Z,99.90
2019-06-01T22:45:24.652Z,99.90
2019-06-01T22:47:54.107Z,99.90
2019-06-01T22:50:24.737Z,99.90
2019-06-01T22:52:54.124Z,99.90
2019-06-01T22:55:24.330Z,99.90
2019-06-01T22:57:53.769Z,99.90
2019-06-01T23:00:23.653Z,99.90
2019-06-01T23:02:53.100Z,99.90
2019-06-01T23:05:23.005Z,99.90
2019-06-01T23:07:52.525Z,99.90
2019-06-01T23:10:28.064Z,99.90
2019-06-01T23:12:52.897Z,99.90
2019-06-01T23:15:23.302Z,99.90
2019-06-01T23:17:52.925Z,99.90
2019-06-01T23:20:22.251Z,99.90
2019-06-01T23:22:51.561Z,99.90
2019-06-01T23:25:20.885Z,99.90
2019-06-01T23:27:50.208Z,99.90
2019-06-01T23:30:19.528Z,99.90
2019-06-01T23:32:48.844Z,99.90
2019-06-01T23:35:18.198Z,99.90
2019-06-01T23:37:47.553Z,99.90
2019-06-01T23:40:16.890Z,99.90
2019-06-01T23:42:47.277Z,99.90
2019-06-01T23:45:16.609Z,99.90
2019-06-01T23:47:45.936Z,99.90
2019-06-01T23:50:15.264Z,99.90
2019-06-01T23:52:44.586Z,99.90
2019-06-01T23:55:15.832Z,99.90
2019-06-01T23:57:45.148Z,99.90
